createdAt,value
2023-05-09T00:01:29.925Z,95.50
2023-05-09T00:03:58.672Z,95.10
2023-05-09T00:06:27.561Z,95.00
2023-05-09T00:08:56.985Z,95.20
2023-05-09T00:11:24.372Z,95.60
2023-05-09T00:13:51.946Z,95.80
2023-05-09T00:16:20.582Z,95.90
2023-05-09T00:18:47.569Z,96.00
2023-05-09T00:21:14.574Z,96.00
2023-05-09T00:23:41.512Z,96.30
2023-05-09T00:26:09.481Z,96.70
2023-05-09T00:28:36.929Z,97.20
2023-05-09T00:31:04.585Z,96.30
2023-05-09T00:33:31.495Z,96.80
2023-05-09T00:35:58.371Z,96.80
2023-05-09T00:38:25.403Z,97.20
2023-05-09T00:40:52.475Z,98.30
2023-05-09T00:43:19.353Z,97.20
2023-05-09T00:45:47.056Z,98.40
2023-05-09T00:48:16.166Z,96.80
2023-05-09T00:50:43.828Z,96.90
2023-05-09T00:53:10.945Z,97.00
2023-05-09T00:55:38.029Z,97.40
2023-05-09T00:58:05.022Z,97.50
2023-05-09T01:00:32.290Z,98.90
2023-05-09T01:02:59.269Z,97.70
2023-05-09T01:05:36.849Z,97.50
2023-05-09T01:08:12.446Z,97.40
2023-05-09T01:10:55.069Z,97.50
2023-05-09T01:13:52.836Z,98.10
2023-05-09T01:16:42.740Z,98.00
2023-05-09T01:20:11.105Z,98.20
2023-05-09T01:22:46.658Z,98.10
2023-05-09T01:25:47.768Z,98.40
2023-05-09T01:28:23.757Z,98.50
2023-05-09T01:30:53.524Z,98.30
2023-05-09T01:33:23.690Z,99.40
2023-05-09T01:36:01.564Z,98.40
2023-05-09T01:38:31.415Z,98.40
2023-05-09T01:40:59.795Z,99.40
2023-05-09T01:43:30.211Z,98.80
2023-05-09T01:45:58.741Z,99.90
2023-05-09T01:48:28.166Z,98.90
2023-05-09T01:50:55.713Z,99.10
2023-05-09T01:53:23.755Z,99.00
2023-05-09T01:55:52.288Z,99.10
2023-05-09T01:58:20.386Z,99.60
2023-05-09T02:00:49.033Z,99.90
2023-05-09T02:03:16.160Z,99.30
2023-05-09T02:05:44.476Z,99.40
2023-05-09T02:08:14.117Z,99.30
2023-05-09T02:10:41.996Z,99.40
2023-05-09T02:13:08.918Z,99.40
2023-05-09T02:15:36.002Z,99.30
2023-05-09T02:18:02.963Z,99.30
2023-05-09T02:20:30.029Z,99.30
2023-05-09T02:22:57.162Z,99.40
2023-05-09T02:25:24.220Z,99.50
2023-05-09T02:27:53.185Z,99.50
2023-05-09T02:30:25.273Z,99.90
2023-05-09T02:32:58.635Z,99.90
2023-05-09T02:35:28.284Z,99.00
2023-05-09T02:37:58.095Z,99.90
2023-05-09T02:40:28.340Z,99.20
2023-05-09T02:42:55.901Z,99.90
2023-05-09T02:45:22.939Z,99.30
2023-05-09T02:47:49.956Z,99.70
2023-05-09T02:50:17.553Z,99.60
2023-05-09T02:52:44.633Z,99.30
2023-05-09T02:55:11.677Z,99.50
2023-05-09T02:57:38.649Z,99.30
2023-05-09T03:00:09.623Z,99.20
2023-05-09T03:02:38.090Z,99.30
2023-05-09T03:05:05.804Z,99.10
2023-05-09T03:07:32.792Z,99.40
2023-05-09T03:09:59.780Z,99.60
2023-05-09T03:12:26.735Z,99.70
2023-05-09T03:14:53.625Z,99.70
2023-05-09T03:17:21.488Z,99.90
2023-05-09T03:19:48.840Z,99.90
2023-05-09T03:22:16.197Z,99.90
2023-05-09T03:24:43.357Z,99.90
2023-05-09T03:27:10.284Z,99.90
2023-05-09T03:29:37.263Z,99.90
2023-05-09T03:32:04.362Z,99.90
2023-05-09T03:34:31.309Z,99.90
2023-05-09T03:36:59.432Z,99.90
2023-05-09T03:39:26.561Z,99.90
2023-05-09T03:41:53.465Z,99.90
2023-05-09T03:44:20.466Z,99.90
2023-05-09T03:46:47.535Z,99.90
2023-05-09T03:49:14.455Z,99.90
2023-05-09T03:51:42.208Z,99.90
2023-05-09T03:54:09.273Z,99.90
2023-05-09T03:56:36.250Z,99.90
2023-05-09T03:59:03.209Z,99.90
2023-05-09T04:01:30.858Z,99.90
2023-05-09T04:03:57.987Z,99.90
2023-05-09T04:06:25.020Z,99.90
2023-05-09T04:08:52.537Z,99.90
2023-05-09T04:11:19.379Z,99.90
2023-05-09T04:13:46.278Z,99.90
2023-05-09T04:16:13.485Z,99.90
2023-05-09T04:18:42.387Z,99.90
2023-05-09T04:21:09.644Z,99.90
2023-05-09T04:23:36.563Z,99.90
2023-05-09T04:26:03.702Z,99.90
2023-05-09T04:28:30.678Z,99.90
2023-05-09T04:30:58.047Z,99.90
2023-05-09T04:33:25.174Z,99.90
2023-05-09T04:35:52.328Z,99.90
2023-05-09T04:38:19.319Z,99.90
2023-05-09T04:40:46.267Z,99.90
2023-05-09T04:43:13.357Z,99.90
2023-05-09T04:45:40.663Z,99.90
2023-05-09T04:48:07.747Z,99.90
2023-05-09T04:50:34.847Z,99.90
2023-05-09T04:53:01.733Z,99.90
2023-05-09T04:55:28.680Z,99.90
2023-05-09T04:57:55.608Z,99.80
2023-05-09T05:00:22.875Z,99.60
2023-05-09T05:02:51.871Z,99.60
2023-05-09T05:05:24.652Z,99.70
2023-05-09T05:07:54.124Z,99.70
2023-05-09T05:10:21.168Z,99.80
2023-05-09T05:12:48.273Z,99.60
2023-05-09T05:15:15.578Z,99.90
2023-05-09T05:17:42.809Z,99.70
2023-05-09T05:20:10.658Z,99.90
2023-05-09T05:22:37.804Z,99.20
2023-05-09T05:25:05.321Z,98.90
2023-05-09T05:27:32.247Z,98.60
2023-05-09T05:29:59.474Z,99.10
2023-05-09T05:32:26.454Z,98.20
2023-05-09T05:34:53.410Z,98.40
2023-05-09T05:37:20.296Z,99.20
2023-05-09T05:39:47.317Z,97.90
2023-05-09T05:42:14.730Z,97.80
2023-05-09T05:44:41.833Z,97.40
2023-05-09T05:47:08.744Z,97.10
2023-05-09T05:49:35.640Z,97.10
2023-05-09T05:52:02.570Z,97.20
2023-05-09T05:54:29.840Z,97.30
2023-05-09T05:56:56.791Z,97.40
2023-05-09T05:59:23.723Z,97.00
2023-05-09T06:01:51.254Z,96.50
2023-05-09T06:04:18.253Z,96.30
2023-05-09T06:06:45.735Z,96.70
2023-05-09T06:09:12.708Z,96.50
2023-05-09T06:11:39.632Z,96.30
2023-05-09T06:14:06.589Z,96.10
2023-05-09T06:16:33.784Z,96.00
2023-05-09T06:19:00.818Z,96.30
2023-05-09T06:21:27.713Z,96.50
2023-05-09T06:24:05.832Z,96.00
2023-05-09T06:26:36.070Z,96.30
2023-05-09T06:29:04.399Z,95.90
2023-05-09T06:31:31.420Z,95.70
2023-05-09T06:33:58.316Z,95.70
2023-05-09T06:36:25.263Z,95.50
2023-05-09T06:38:52.232Z,95.50
2023-05-09T06:41:19.111Z,95.40
2023-05-09T06:43:46.064Z,94.80
2023-05-09T06:46:13.051Z,94.70
2023-05-09T06:48:39.912Z,94.90
2023-05-09T06:51:06.891Z,94.80
2023-05-09T06:53:33.901Z,95.00
2023-05-09T06:56:01.118Z,94.50
2023-05-09T06:58:28.779Z,93.50
2023-05-09T07:00:56.071Z,94.30
2023-05-09T07:03:23.007Z,94.10
2023-05-09T07:05:49.924Z,93.80
2023-05-09T07:08:16.865Z,93.30
2023-05-09T07:10:43.785Z,92.60
2023-05-09T07:13:10.762Z,92.00
2023-05-09T07:15:42.040Z,93.00
2023-05-09T07:18:09.931Z,92.70
2023-05-09T07:20:37.022Z,91.50
2023-05-09T07:23:04.890Z,90.70
2023-05-09T07:25:32.108Z,90.80
2023-05-09T07:27:59.083Z,91.60
2023-05-09T07:30:26.122Z,91.10
2023-05-09T07:32:53.189Z,90.60
2023-05-09T07:35:20.503Z,89.70
2023-05-09T07:37:47.369Z,86.90
2023-05-09T07:40:15.089Z,88.40
2023-05-09T07:42:46.216Z,86.00
2023-05-09T07:45:13.407Z,89.00
2023-05-09T07:47:40.443Z,88.20
2023-05-09T07:50:08.097Z,87.60
2023-05-09T07:52:35.057Z,87.00
2023-05-09T07:55:02.061Z,87.30
2023-05-09T07:57:28.962Z,89.10
2023-05-09T07:59:55.930Z,90.90
2023-05-09T08:02:22.917Z,88.30
2023-05-09T08:04:49.885Z,88.20
2023-05-09T08:07:16.843Z,86.60
2023-05-09T08:09:43.765Z,87.60
2023-05-09T08:12:10.764Z,86.20
2023-05-09T08:14:37.720Z,86.30
2023-05-09T08:17:04.757Z,86.30
2023-05-09T08:19:31.797Z,87.00
2023-05-09T08:21:58.913Z,85.60
2023-05-09T08:24:26.052Z,82.20
2023-05-09T08:26:52.933Z,83.70
2023-05-09T08:29:19.827Z,83.80
2023-05-09T08:31:46.746Z,81.10
2023-05-09T08:34:14.377Z,83.00
2023-05-09T08:36:41.629Z,81.30
2023-05-09T08:39:09.728Z,83.10
2023-05-09T08:41:38.755Z,81.80
2023-05-09T08:44:05.871Z,80.90
2023-05-09T08:46:39.598Z,81.00
2023-05-09T08:49:07.320Z,78.30
2023-05-09T08:51:36.049Z,81.60
2023-05-09T08:54:03.730Z,84.40
2023-05-09T08:56:32.238Z,82.20
2023-05-09T08:58:59.194Z,80.20
2023-05-09T09:01:28.965Z,82.10
2023-05-09T09:03:56.479Z,79.00
2023-05-09T09:06:25.772Z,75.40
2023-05-09T09:08:56.229Z,73.90
2023-05-09T09:11:23.552Z,74.60
2023-05-09T09:13:52.973Z,73.00
2023-05-09T09:16:25.370Z,75.10
2023-05-09T09:18:56.279Z,73.40
2023-05-09T09:21:25.430Z,77.20
2023-05-09T09:23:55.407Z,77.20
2023-05-09T09:26:22.405Z,77.90
2023-05-09T09:28:49.384Z,78.90
2023-05-09T09:31:28.507Z,76.10
2023-05-09T09:34:03.161Z,76.10
2023-05-09T09:36:32.629Z,74.20
2023-05-09T09:39:02.554Z,75.90
2023-05-09T09:41:38.803Z,76.20
2023-05-09T09:44:10.374Z,77.60
2023-05-09T09:46:56.324Z,77.60
2023-05-09T09:49:26.212Z,77.90
2023-05-09T09:51:55.684Z,78.00
2023-05-09T09:54:23.132Z,72.50
2023-05-09T09:56:54.271Z,73.10
2023-05-09T09:59:25.044Z,73.30
2023-05-09T10:02:04.012Z,73.90
2023-05-09T10:04:37.889Z,72.30
2023-05-09T10:07:07.361Z,70.10
2023-05-09T10:09:36.088Z,71.30
2023-05-09T10:12:06.309Z,75.00
2023-05-09T10:14:36.516Z,74.30
2023-05-09T10:17:05.825Z,77.30
2023-05-09T10:19:33.321Z,78.10
2023-05-09T10:22:06.240Z,76.20
2023-05-09T10:24:45.018Z,74.10
2023-05-09T10:27:13.124Z,73.10
2023-05-09T10:29:54.562Z,70.00
2023-05-09T10:32:32.520Z,72.20
2023-05-09T10:35:06.043Z,72.40
2023-05-09T10:37:33.740Z,73.30
2023-05-09T10:40:04.225Z,70.00
2023-05-09T10:42:31.884Z,68.80
2023-05-09T10:44:59.030Z,65.10
2023-05-09T10:47:28.082Z,65.70
2023-05-09T10:49:55.627Z,66.80
2023-05-09T10:52:22.879Z,67.40
2023-05-09T10:55:05.868Z,67.20
2023-05-09T10:57:32.905Z,67.30
2023-05-09T11:00:00.481Z,67.10
2023-05-09T11:02:32.510Z,66.60
2023-05-09T11:05:20.230Z,68.80
2023-05-09T11:07:47.406Z,66.60
2023-05-09T11:10:18.537Z,67.00
2023-05-09T11:13:00.301Z,67.00
2023-05-09T11:15:28.106Z,64.00
2023-05-09T11:18:16.194Z,64.30
2023-05-09T11:20:49.070Z,63.10
2023-05-09T11:23:19.109Z,61.90
2023-05-09T11:25:50.136Z,61.40
2023-05-09T11:28:37.799Z,59.30
2023-05-09T11:31:17.312Z,59.00
2023-05-09T11:33:47.767Z,58.90
2023-05-09T11:36:30.064Z,58.60
2023-05-09T11:39:02.586Z,57.20
2023-05-09T11:41:30.433Z,58.30
2023-05-09T11:44:00.100Z,58.30
2023-05-09T11:46:27.778Z,57.30
2023-05-09T11:48:54.774Z,56.50
2023-05-09T11:51:22.000Z,56.40
2023-05-09T11:53:54.619Z,57.80
2023-05-09T11:56:23.028Z,55.10
2023-05-09T11:58:53.003Z,53.60
2023-05-09T12:01:20.816Z,52.40
2023-05-09T12:03:48.037Z,51.20
2023-05-09T12:06:19.873Z,51.60
2023-05-09T12:08:47.244Z,52.10
2023-05-09T12:11:15.475Z,55.20
2023-05-09T12:13:49.982Z,55.00
2023-05-09T12:16:18.545Z,55.90
2023-05-09T12:18:53.233Z,51.50
2023-05-09T12:21:21.697Z,50.10
2023-05-09T12:23:51.246Z,50.90
2023-05-09T12:26:22.233Z,46.10
2023-05-09T12:28:50.114Z,42.60
2023-05-09T12:31:17.821Z,44.20
2023-05-09T12:33:45.031Z,45.90
2023-05-09T12:36:13.667Z,44.50
2023-05-09T12:38:40.815Z,45.10
2023-05-09T12:41:21.961Z,45.60
2023-05-09T12:43:57.169Z,46.00
2023-05-09T12:46:24.405Z,43.80
2023-05-09T12:48:51.758Z,47.00
2023-05-09T12:51:21.454Z,48.60
2023-05-09T12:53:48.972Z,46.20
2023-05-09T12:56:19.090Z,45.10
2023-05-09T12:58:50.284Z,44.70
2023-05-09T13:01:18.007Z,46.60
2023-05-09T13:03:45.030Z,48.30
2023-05-09T13:06:14.376Z,48.30
2023-05-09T13:08:41.656Z,46.10
2023-05-09T13:11:16.672Z,45.60
2023-05-09T13:13:44.947Z,45.00
2023-05-09T13:16:13.446Z,45.70
2023-05-09T13:18:42.792Z,46.20
2023-05-09T13:21:09.687Z,47.50
2023-05-09T13:23:36.626Z,46.40
2023-05-09T13:26:03.603Z,45.80
2023-05-09T13:28:30.568Z,44.90
2023-05-09T13:30:57.420Z,46.30
2023-05-09T13:33:26.432Z,45.90
2023-05-09T13:35:54.021Z,46.20
2023-05-09T13:38:21.057Z,46.50
2023-05-09T13:40:47.961Z,46.60
2023-05-09T13:43:14.892Z,47.00
2023-05-09T13:45:41.780Z,47.00
2023-05-09T13:48:08.973Z,47.30
2023-05-09T13:50:35.900Z,47.60
2023-05-09T13:53:03.383Z,51.40
2023-05-09T13:55:30.988Z,48.70
2023-05-09T13:57:57.910Z,48.80
2023-05-09T14:00:26.620Z,48.80
2023-05-09T14:02:53.746Z,49.90
2023-05-09T14:05:20.758Z,48.40
2023-05-09T14:07:47.760Z,50.00
2023-05-09T14:10:14.706Z,49.10
2023-05-09T14:12:44.423Z,48.50
2023-05-09T14:15:11.516Z,48.80
2023-05-09T14:17:38.775Z,48.80
2023-05-09T14:20:06.960Z,49.50
2023-05-09T14:22:33.990Z,49.20
2023-05-09T14:25:01.062Z,48.80
2023-05-09T14:27:28.107Z,48.30
2023-05-09T14:29:55.258Z,48.50
2023-05-09T14:32:22.208Z,48.40
2023-05-09T14:34:51.930Z,48.60
2023-05-09T14:37:19.078Z,50.90
2023-05-09T14:39:46.734Z,48.00
2023-05-09T14:42:14.297Z,48.10
2023-05-09T14:44:42.126Z,48.20
2023-05-09T14:47:10.004Z,47.80
2023-05-09T14:49:39.817Z,47.50
2023-05-09T14:52:06.808Z,47.90
2023-05-09T14:54:34.765Z,47.90
2023-05-09T14:57:04.532Z,49.90
2023-05-09T14:59:32.321Z,48.30
2023-05-09T15:01:59.627Z,48.40
2023-05-09T15:04:30.490Z,49.10
2023-05-09T15:06:58.828Z,48.80
2023-05-09T15:09:25.804Z,48.30
2023-05-09T15:11:52.720Z,49.10
2023-05-09T15:14:19.700Z,48.50
2023-05-09T15:16:46.765Z,48.80
2023-05-09T15:19:14.688Z,49.30
2023-05-09T15:21:41.632Z,49.00
2023-05-09T15:24:08.638Z,49.40
2023-05-09T15:26:35.628Z,49.00
2023-05-09T15:29:02.735Z,49.50
2023-05-09T15:31:33.242Z,48.90
2023-05-09T15:34:01.171Z,49.00
2023-05-09T15:36:30.104Z,49.70
2023-05-09T15:38:57.332Z,48.80
2023-05-09T15:41:24.975Z,46.20
2023-05-09T15:43:52.646Z,47.00
2023-05-09T15:46:19.599Z,45.00
2023-05-09T15:48:47.416Z,44.30
2023-05-09T15:51:14.291Z,43.90
2023-05-09T15:53:41.419Z,43.80
2023-05-09T15:56:08.959Z,43.60
2023-05-09T15:58:36.711Z,42.70
2023-05-09T16:01:06.313Z,43.50
2023-05-09T16:03:34.013Z,43.80
2023-05-09T16:06:01.253Z,43.30
2023-05-09T16:08:28.145Z,43.70
2023-05-09T16:10:55.150Z,43.30
2023-05-09T16:13:22.467Z,43.10
2023-05-09T16:15:50.072Z,44.00
2023-05-09T16:18:20.571Z,44.60
2023-05-09T16:20:48.761Z,44.20
2023-05-09T16:23:15.778Z,44.60
2023-05-09T16:25:58.297Z,45.10
2023-05-09T16:28:52.694Z,45.20
2023-05-09T16:31:27.528Z,44.90
2023-05-09T16:33:57.479Z,45.40
2023-05-09T16:36:27.910Z,45.50
2023-05-09T16:38:59.194Z,46.00
2023-05-09T16:41:31.950Z,46.30
2023-05-09T16:44:05.091Z,47.20
2023-05-09T16:46:44.113Z,47.70
2023-05-09T16:49:15.524Z,48.00
2023-05-09T16:51:45.907Z,48.20
2023-05-09T16:54:12.932Z,48.50
2023-05-09T16:56:39.879Z,49.10
2023-05-09T16:59:07.370Z,49.20
2023-05-09T17:01:34.381Z,49.50
2023-05-09T17:04:01.729Z,48.60
2023-05-09T17:06:28.699Z,48.70
2023-05-09T17:08:55.798Z,49.50
2023-05-09T17:11:23.064Z,49.80
2023-05-09T17:13:50.030Z,49.40
2023-05-09T17:16:17.035Z,49.40
2023-05-09T17:18:47.286Z,49.80
2023-05-09T17:21:17.983Z,49.60
2023-05-09T17:23:44.898Z,49.10
2023-05-09T17:26:11.807Z,49.70
2023-05-09T17:28:38.906Z,49.70
2023-05-09T17:31:05.907Z,49.70
2023-05-09T17:33:32.908Z,49.80
2023-05-09T17:36:00.086Z,49.50
2023-05-09T17:38:27.124Z,50.30
2023-05-09T17:40:54.052Z,50.00
2023-05-09T17:43:21.831Z,50.10
2023-05-09T17:45:48.800Z,50.30
2023-05-09T17:48:15.987Z,50.50
2023-05-09T17:50:44.326Z,50.80
2023-05-09T17:53:11.729Z,51.10
2023-05-09T17:55:39.372Z,51.30
2023-05-09T17:58:07.945Z,51.50
2023-05-09T18:00:35.032Z,52.00
2023-05-09T18:03:04.287Z,52.60
2023-05-09T18:05:31.186Z,53.40
2023-05-09T18:08:00.749Z,52.80
2023-05-09T18:10:29.010Z,52.60
2023-05-09T18:12:56.032Z,53.00
2023-05-09T18:15:23.072Z,53.20
2023-05-09T18:17:50.369Z,53.40
2023-05-09T18:20:17.524Z,53.90
2023-05-09T18:22:44.740Z,53.90
2023-05-09T18:25:12.176Z,54.80
2023-05-09T18:27:39.261Z,55.10
2023-05-09T18:30:07.368Z,56.40
2023-05-09T18:32:34.432Z,56.70
2023-05-09T18:35:01.385Z,57.40
2023-05-09T18:37:28.283Z,58.00
2023-05-09T18:39:56.175Z,57.30
2023-05-09T18:42:23.083Z,57.70
2023-05-09T18:44:50.102Z,57.70
2023-05-09T18:47:17.605Z,58.20
2023-05-09T18:49:44.469Z,58.70
2023-05-09T18:52:11.580Z,60.10
2023-05-09T18:54:41.036Z,60.70
2023-05-09T18:57:08.475Z,59.60
2023-05-09T18:59:35.364Z,60.10
2023-05-09T19:02:02.462Z,61.90
2023-05-09T19:04:29.435Z,62.90
2023-05-09T19:06:56.706Z,63.50
2023-05-09T19:09:23.580Z,63.30
2023-05-09T19:11:50.453Z,65.10
2023-05-09T19:14:17.315Z,64.90
2023-05-09T19:16:44.209Z,65.10
2023-05-09T19:19:11.077Z,66.10
2023-05-09T19:21:38.136Z,69.60
2023-05-09T19:24:06.340Z,71.00
2023-05-09T19:26:33.287Z,69.30
2023-05-09T19:29:00.729Z,70.50
2023-05-09T19:31:28.108Z,71.00
2023-05-09T19:33:55.101Z,72.80
2023-05-09T19:36:22.136Z,74.70
2023-05-09T19:38:49.077Z,73.80
2023-05-09T19:41:16.002Z,75.60
2023-05-09T19:43:43.071Z,76.50
2023-05-09T19:46:10.079Z,77.60
2023-05-09T19:48:37.110Z,78.90
2023-05-09T19:51:04.520Z,78.70
2023-05-09T19:53:31.607Z,77.90
2023-05-09T19:55:58.793Z,80.40
2023-05-09T19:58:27.528Z,80.40
2023-05-09T20:00:54.476Z,81.80
2023-05-09T20:03:21.466Z,82.30
2023-05-09T20:05:48.395Z,82.80
2023-05-09T20:08:15.517Z,84.10
2023-05-09T20:10:42.431Z,85.20
2023-05-09T20:13:09.383Z,85.40
2023-05-09T20:15:36.407Z,88.20
2023-05-09T20:18:04.577Z,86.50
2023-05-09T20:20:34.181Z,86.90
2023-05-09T20:23:01.938Z,88.80
2023-05-09T20:25:28.928Z,89.00
2023-05-09T20:27:55.821Z,89.30
2023-05-09T20:30:22.781Z,91.00
2023-05-09T20:32:49.755Z,90.20
2023-05-09T20:35:16.861Z,91.50
2023-05-09T20:37:43.720Z,92.00
2023-05-09T20:40:10.972Z,92.60
2023-05-09T20:42:38.090Z,91.90
2023-05-09T20:45:05.841Z,92.50
2023-05-09T20:47:32.782Z,93.20
2023-05-09T20:49:59.873Z,94.00
2023-05-09T20:52:26.926Z,94.00
2023-05-09T20:54:53.832Z,93.60
2023-05-09T20:57:20.844Z,94.50
2023-05-09T20:59:47.742Z,95.10
2023-05-09T21:02:14.665Z,94.60
2023-05-09T21:04:42.007Z,95.20
2023-05-09T21:07:09.922Z,96.10
2023-05-09T21:09:36.830Z,95.60
2023-05-09T21:12:04.488Z,95.00
2023-05-09T21:14:31.560Z,95.20
2023-05-09T21:16:58.504Z,96.30
2023-05-09T21:19:25.651Z,95.80
2023-05-09T21:21:52.592Z,96.20
2023-05-09T21:24:19.523Z,96.70
2023-05-09T21:26:46.486Z,97.20
2023-05-09T21:29:13.733Z,97.10
2023-05-09T21:31:40.772Z,97.80
2023-05-09T21:34:10.289Z,97.50
2023-05-09T21:36:38.468Z,97.60
2023-05-09T21:39:09.323Z,97.70
2023-05-09T21:41:41.918Z,98.30
2023-05-09T21:44:08.891Z,97.80
2023-05-09T21:46:36.104Z,98.30
2023-05-09T21:49:03.268Z,98.30
2023-05-09T21:51:31.501Z,98.40
2023-05-09T21:53:58.485Z,98.30
2023-05-09T21:56:25.368Z,98.30
2023-05-09T21:58:52.279Z,98.00
2023-05-09T22:01:19.458Z,98.60
2023-05-09T22:03:46.535Z,98.90
2023-05-09T22:06:13.567Z,98.40
2023-05-09T22:08:40.869Z,98.50
2023-05-09T22:11:07.871Z,99.20
2023-05-09T22:13:36.296Z,98.90
2023-05-09T22:16:04.094Z,99.10
2023-05-09T22:18:31.745Z,99.40
2023-05-09T22:20:59.234Z,99.50
2023-05-09T22:23:26.333Z,99.60
2023-05-09T22:25:53.559Z,99.90
2023-05-09T22:28:20.805Z,99.60
2023-05-09T22:30:47.689Z,99.90
2023-05-09T22:33:14.551Z,99.60
2023-05-09T22:35:41.738Z,99.70
2023-05-09T22:38:08.768Z,99.80
2023-05-09T22:40:36.125Z,99.90
2023-05-09T22:43:03.210Z,99.90
2023-05-09T22:45:30.153Z,99.90
2023-05-09T22:47:57.889Z,99.90
2023-05-09T22:50:24.868Z,99.90
2023-05-09T22:52:51.821Z,99.90
2023-05-09T22:55:19.304Z,99.90
2023-05-09T22:57:46.228Z,99.90
2023-05-09T23:00:14.206Z,99.90
2023-05-09T23:02:41.284Z,99.90
2023-05-09T23:05:08.832Z,99.90
2023-05-09T23:07:35.794Z,99.90
2023-05-09T23:10:03.531Z,99.90
2023-05-09T23:12:30.617Z,99.90
2023-05-09T23:14:57.645Z,99.90
2023-05-09T23:17:24.664Z,99.90
2023-05-09T23:19:51.644Z,99.90
2023-05-09T23:22:18.670Z,99.90
2023-05-09T23:24:45.649Z,99.90
2023-05-09T23:27:12.606Z,99.90
2023-05-09T23:29:39.533Z,99.90
2023-05-09T23:32:06.403Z,99.90
2023-05-09T23:34:33.827Z,99.90
2023-05-09T23:37:01.089Z,99.90
2023-05-09T23:39:28.561Z,99.90
2023-05-09T23:41:55.445Z,99.90
2023-05-09T23:44:22.548Z,99.90
2023-05-09T23:46:49.522Z,99.90
2023-05-09T23:49:16.552Z,99.90
2023-05-09T23:51:43.477Z,99.90
2023-05-09T23:54:10.504Z,99.90
2023-05-09T23:56:37.862Z,99.90
2023-05-09T23:59:04.773Z,99.90
